sensor_id;sensor_type;location;lat;lon;timestamp;P1;durP1;ratioP1;P2;durP2;ratioP2
23812;SDS011;12087;45.190;5.688;2022-12-07T00:02:26;27.80;;;15.52;;
23812;SDS011;12087;45.190;5.688;2022-12-07T00:07:49;27.20;;;16.50;;
23812;SDS011;12087;45.190;5.688;2022-12-07T00:13:11;23.88;;;14.73;;
23812;SDS011;12087;45.190;5.688;2022-12-07T00:18:35;23.90;;;14.82;;
23812;SDS011;12087;45.190;5.688;2022-12-07T00:23:57;27.10;;;15.45;;
23812;SDS011;12087;45.190;5.688;2022-12-07T00:29:20;25.45;;;14.95;;
23812;SDS011;12087;45.190;5.688;2022-12-07T00:34:45;23.05;;;14.23;;
23812;SDS011;12087;45.190;5.688;2022-12-07T00:40:07;23.85;;;13.45;;
23812;SDS011;12087;45.190;5.688;2022-12-07T00:45:30;22.58;;;14.55;;
23812;SDS011;12087;45.190;5.688;2022-12-07T00:50:54;24.15;;;14.80;;
23812;SDS011;12087;45.190;5.688;2022-12-07T00:56:18;23.63;;;14.38;;
23812;SDS011;12087;45.190;5.688;2022-12-07T01:01:41;27.48;;;15.82;;
23812;SDS011;12087;45.190;5.688;2022-12-07T01:07:05;24.67;;;15.13;;
23812;SDS011;12087;45.190;5.688;2022-12-07T01:12:27;23.52;;;14.40;;
23812;SDS011;12087;45.190;5.688;2022-12-07T01:17:50;22.48;;;14.82;;
23812;SDS011;12087;45.190;5.688;2022-12-07T01:23:13;27.67;;;15.27;;
23812;SDS011;12087;45.190;5.688;2022-12-07T01:28:36;27.77;;;15.07;;
23812;SDS011;12087;45.190;5.688;2022-12-07T01:33:59;26.30;;;14.35;;
23812;SDS011;12087;45.190;5.688;2022-12-07T01:39:23;24.80;;;15.52;;
23812;SDS011;12087;45.190;5.688;2022-12-07T01:50:44;29.02;;;16.17;;
23812;SDS011;12087;45.190;5.688;2022-12-07T01:56:10;26.25;;;16.10;;
23812;SDS011;12087;45.190;5.688;2022-12-07T02:01:38;25.23;;;15.40;;
23812;SDS011;12087;45.190;5.688;2022-12-07T02:07:00;25.73;;;15.07;;
23812;SDS011;12087;45.190;5.688;2022-12-07T02:12:25;23.73;;;14.65;;
23812;SDS011;12087;45.190;5.688;2022-12-07T02:17:50;26.80;;;14.32;;
23812;SDS011;12087;45.190;5.688;2022-12-07T02:29:22;29.05;;;14.65;;
23812;SDS011;12087;45.190;5.688;2022-12-07T02:34:47;22.05;;;13.00;;
23812;SDS011;12087;45.190;5.688;2022-12-07T02:40:12;24.30;;;14.02;;
23812;SDS011;12087;45.190;5.688;2022-12-07T02:45:41;24.02;;;14.15;;
23812;SDS011;12087;45.190;5.688;2022-12-07T02:51:05;42.28;;;17.35;;
23812;SDS011;12087;45.190;5.688;2022-12-07T02:56:30;21.10;;;12.57;;
23812;SDS011;12087;45.190;5.688;2022-12-07T03:02:05;22.58;;;14.48;;
23812;SDS011;12087;45.190;5.688;2022-12-07T03:07:38;22.17;;;13.20;;
23812;SDS011;12087;45.190;5.688;2022-12-07T03:13:11;22.60;;;13.50;;
23812;SDS011;12087;45.190;5.688;2022-12-07T03:18:43;21.52;;;14.02;;
23812;SDS011;12087;45.190;5.688;2022-12-07T03:24:09;19.13;;;12.77;;
23812;SDS011;12087;45.190;5.688;2022-12-07T03:29:36;20.42;;;13.23;;
23812;SDS011;12087;45.190;5.688;2022-12-07T03:35:07;21.60;;;12.82;;
23812;SDS011;12087;45.190;5.688;2022-12-07T03:40:35;17.35;;;10.85;;
23812;SDS011;12087;45.190;5.688;2022-12-07T03:46:04;21.03;;;12.37;;
23812;SDS011;12087;45.190;5.688;2022-12-07T03:51:38;17.42;;;11.23;;
23812;SDS011;12087;45.190;5.688;2022-12-07T03:57:05;22.45;;;11.85;;
23812;SDS011;12087;45.190;5.688;2022-12-07T04:02:29;21.45;;;12.60;;
23812;SDS011;12087;45.190;5.688;2022-12-07T04:07:53;18.77;;;11.48;;
23812;SDS011;12087;45.190;5.688;2022-12-07T04:13:15;22.15;;;12.60;;
23812;SDS011;12087;45.190;5.688;2022-12-07T04:18:37;22.98;;;14.57;;
23812;SDS011;12087;45.190;5.688;2022-12-07T04:24:01;24.95;;;14.75;;
23812;SDS011;12087;45.190;5.688;2022-12-07T04:29:24;22.90;;;15.75;;
23812;SDS011;12087;45.190;5.688;2022-12-07T04:34:46;26.08;;;16.48;;
23812;SDS011;12087;45.190;5.688;2022-12-07T04:40:10;26.70;;;15.50;;
23812;SDS011;12087;45.190;5.688;2022-12-07T04:45:34;25.17;;;15.48;;
23812;SDS011;12087;45.190;5.688;2022-12-07T04:50:56;24.20;;;15.52;;
23812;SDS011;12087;45.190;5.688;2022-12-07T04:56:20;26.40;;;16.23;;
23812;SDS011;12087;45.190;5.688;2022-12-07T05:01:43;29.55;;;16.30;;
23812;SDS011;12087;45.190;5.688;2022-12-07T05:07:05;24.38;;;16.00;;
23812;SDS011;12087;45.190;5.688;2022-12-07T05:12:29;26.77;;;15.23;;
23812;SDS011;12087;45.190;5.688;2022-12-07T05:17:51;26.52;;;16.10;;
23812;SDS011;12087;45.190;5.688;2022-12-07T05:23:13;27.33;;;15.52;;
23812;SDS011;12087;45.190;5.688;2022-12-07T05:28:37;24.10;;;15.50;;
23812;SDS011;12087;45.190;5.688;2022-12-07T05:34:00;24.83;;;16.77;;
23812;SDS011;12087;45.190;5.688;2022-12-07T05:39:22;26.42;;;15.00;;
23812;SDS011;12087;45.190;5.688;2022-12-07T05:44:46;25.17;;;15.95;;
23812;SDS011;12087;45.190;5.688;2022-12-07T05:50:08;26.90;;;16.05;;
23812;SDS011;12087;45.190;5.688;2022-12-07T05:55:30;25.38;;;16.52;;
23812;SDS011;12087;45.190;5.688;2022-12-07T06:00:55;24.83;;;16.05;;
23812;SDS011;12087;45.190;5.688;2022-12-07T06:06:17;25.23;;;16.33;;
23812;SDS011;12087;45.190;5.688;2022-12-07T06:11:40;25.98;;;16.38;;
23812;SDS011;12087;45.190;5.688;2022-12-07T06:17:21;23.27;;;15.00;;
23812;SDS011;12087;45.190;5.688;2022-12-07T06:22:43;29.63;;;15.82;;
23812;SDS011;12087;45.190;5.688;2022-12-07T06:28:05;24.77;;;16.80;;
23812;SDS011;12087;45.190;5.688;2022-12-07T06:33:29;28.10;;;17.33;;
23812;SDS011;12087;45.190;5.688;2022-12-07T06:38:51;26.85;;;15.57;;
23812;SDS011;12087;45.190;5.688;2022-12-07T06:44:13;21.05;;;13.20;;
23812;SDS011;12087;45.190;5.688;2022-12-07T06:49:37;22.60;;;13.65;;
23812;SDS011;12087;45.190;5.688;2022-12-07T06:54:59;24.92;;;14.93;;
23812;SDS011;12087;45.190;5.688;2022-12-07T07:00:22;20.02;;;12.57;;
23812;SDS011;12087;45.190;5.688;2022-12-07T07:05:45;17.98;;;12.30;;
23812;SDS011;12087;45.190;5.688;2022-12-07T07:11:08;21.77;;;12.73;;
23812;SDS011;12087;45.190;5.688;2022-12-07T07:16:31;20.63;;;12.40;;
23812;SDS011;12087;45.190;5.688;2022-12-07T07:21:54;20.77;;;12.73;;
23812;SDS011;12087;45.190;5.688;2022-12-07T07:27:17;18.20;;;12.02;;
23812;SDS011;12087;45.190;5.688;2022-12-07T07:32:39;25.35;;;13.95;;
23812;SDS011;12087;45.190;5.688;2022-12-07T07:38:03;20.38;;;13.32;;
23812;SDS011;12087;45.190;5.688;2022-12-07T07:43:25;23.33;;;14.23;;
23812;SDS011;12087;45.190;5.688;2022-12-07T07:48:47;22.67;;;14.45;;
23812;SDS011;12087;45.190;5.688;2022-12-07T07:54:11;31.33;;;15.48;;
23812;SDS011;12087;45.190;5.688;2022-12-07T07:59:33;28.75;;;16.15;;
23812;SDS011;12087;45.190;5.688;2022-12-07T08:04:55;29.90;;;17.83;;
23812;SDS011;12087;45.190;5.688;2022-12-07T08:10:19;29.83;;;17.98;;
23812;SDS011;12087;45.190;5.688;2022-12-07T08:15:43;29.63;;;16.58;;
23812;SDS011;12087;45.190;5.688;2022-12-07T08:21:07;24.67;;;15.98;;
23812;SDS011;12087;45.190;5.688;2022-12-07T08:26:33;26.75;;;16.13;;
23812;SDS011;12087;45.190;5.688;2022-12-07T08:31:55;26.65;;;17.63;;
23812;SDS011;12087;45.190;5.688;2022-12-07T08:37:18;28.25;;;16.25;;
23812;SDS011;12087;45.190;5.688;2022-12-07T08:42:42;27.17;;;15.48;;
23812;SDS011;12087;45.190;5.688;2022-12-07T08:48:06;26.83;;;16.50;;
23812;SDS011;12087;45.190;5.688;2022-12-07T08:53:30;24.45;;;15.68;;
23812;SDS011;12087;45.190;5.688;2022-12-07T08:58:55;26.17;;;16.27;;
23812;SDS011;12087;45.190;5.688;2022-12-07T09:04:19;31.65;;;17.25;;
23812;SDS011;12087;45.190;5.688;2022-12-07T09:09:41;26.52;;;15.82;;
23812;SDS011;12087;45.190;5.688;2022-12-07T09:15:06;27.48;;;15.35;;
23812;SDS011;12087;45.190;5.688;2022-12-07T09:20:29;37.30;;;20.70;;
23812;SDS011;12087;45.190;5.688;2022-12-07T09:25:51;26.83;;;16.40;;
23812;SDS011;12087;45.190;5.688;2022-12-07T09:31:15;26.48;;;15.85;;
23812;SDS011;12087;45.190;5.688;2022-12-07T09:36:37;25.52;;;15.20;;
23812;SDS011;12087;45.190;5.688;2022-12-07T09:41:59;33.17;;;19.92;;
23812;SDS011;12087;45.190;5.688;2022-12-07T09:47:27;24.90;;;14.95;;
23812;SDS011;12087;45.190;5.688;2022-12-07T09:52:50;30.67;;;16.85;;
23812;SDS011;12087;45.190;5.688;2022-12-07T09:58:16;32.40;;;20.50;;
23812;SDS011;12087;45.190;5.688;2022-12-07T10:03:45;32.67;;;24.90;;
23812;SDS011;12087;45.190;5.688;2022-12-07T10:14:35;34.70;;;20.65;;
23812;SDS011;12087;45.190;5.688;2022-12-07T10:20:13;26.92;;;16.85;;
23812;SDS011;12087;45.190;5.688;2022-12-07T10:25:40;25.38;;;16.58;;
23812;SDS011;12087;45.190;5.688;2022-12-07T10:31:03;27.10;;;18.10;;
23812;SDS011;12087;45.190;5.688;2022-12-07T10:36:39;32.40;;;18.88;;
23812;SDS011;12087;45.190;5.688;2022-12-07T10:42:02;28.95;;;19.13;;
23812;SDS011;12087;45.190;5.688;2022-12-07T10:47:29;46.60;;;25.92;;
23812;SDS011;12087;45.190;5.688;2022-12-07T10:53:12;47.72;;;28.13;;
23812;SDS011;12087;45.190;5.688;2022-12-07T10:58:58;33.00;;;21.85;;
23812;SDS011;12087;45.190;5.688;2022-12-07T11:04:31;28.40;;;19.60;;
23812;SDS011;12087;45.190;5.688;2022-12-07T11:15:28;46.58;;;32.03;;
23812;SDS011;12087;45.190;5.688;2022-12-07T11:21:04;29.30;;;19.60;;
23812;SDS011;12087;45.190;5.688;2022-12-07T11:26:39;42.20;;;28.52;;
23812;SDS011;12087;45.190;5.688;2022-12-07T11:32:13;32.38;;;21.02;;
23812;SDS011;12087;45.190;5.688;2022-12-07T11:37:43;27.92;;;18.85;;
23812;SDS011;12087;45.190;5.688;2022-12-07T11:43:11;25.23;;;16.60;;
23812;SDS011;12087;45.190;5.688;2022-12-07T11:48:40;29.13;;;18.83;;
23812;SDS011;12087;45.190;5.688;2022-12-07T11:54:10;30.25;;;20.17;;
23812;SDS011;12087;45.190;5.688;2022-12-07T11:59:39;22.13;;;14.05;;
23812;SDS011;12087;45.190;5.688;2022-12-07T12:05:12;23.23;;;15.27;;
23812;SDS011;12087;45.190;5.688;2022-12-07T12:10:39;24.80;;;16.60;;
23812;SDS011;12087;45.190;5.688;2022-12-07T12:16:17;30.98;;;20.40;;
23812;SDS011;12087;45.190;5.688;2022-12-07T12:21:55;21.88;;;14.15;;
23812;SDS011;12087;45.190;5.688;2022-12-07T12:27:23;20.65;;;12.73;;
23812;SDS011;12087;45.190;5.688;2022-12-07T12:32:51;21.00;;;12.52;;
23812;SDS011;12087;45.190;5.688;2022-12-07T12:38:21;19.55;;;11.82;;
23812;SDS011;12087;45.190;5.688;2022-12-07T12:43:51;19.67;;;12.10;;
23812;SDS011;12087;45.190;5.688;2022-12-07T12:54:58;20.13;;;12.38;;
23812;SDS011;12087;45.190;5.688;2022-12-07T13:00:23;19.13;;;11.57;;
23812;SDS011;12087;45.190;5.688;2022-12-07T13:05:51;18.42;;;12.05;;
23812;SDS011;12087;45.190;5.688;2022-12-07T13:11:40;23.95;;;15.45;;
23812;SDS011;12087;45.190;5.688;2022-12-07T13:17:07;25.83;;;16.15;;
23812;SDS011;12087;45.190;5.688;2022-12-07T13:22:45;30.33;;;18.65;;
23812;SDS011;12087;45.190;5.688;2022-12-07T13:47:06;32.70;;;22.10;;
23812;SDS011;12087;45.190;5.688;2022-12-07T13:52:43;49.75;;;27.42;;
23812;SDS011;12087;45.190;5.688;2022-12-07T13:58:07;45.08;;;30.60;;
23812;SDS011;12087;45.190;5.688;2022-12-07T14:03:35;101.20;;;71.65;;
23812;SDS011;12087;45.190;5.688;2022-12-07T14:09:08;33.90;;;22.65;;
23812;SDS011;12087;45.190;5.688;2022-12-07T14:14:38;34.88;;;21.65;;
23812;SDS011;12087;45.190;5.688;2022-12-07T14:25:53;35.00;;;25.00;;
23812;SDS011;12087;45.190;5.688;2022-12-07T14:31:16;28.23;;;18.17;;
23812;SDS011;12087;45.190;5.688;2022-12-07T14:36:43;30.10;;;19.80;;
23812;SDS011;12087;45.190;5.688;2022-12-07T14:42:07;46.53;;;31.52;;
23812;SDS011;12087;45.190;5.688;2022-12-07T14:47:29;35.83;;;24.35;;
23812;SDS011;12087;45.190;5.688;2022-12-07T14:52:54;30.80;;;21.13;;
23812;SDS011;12087;45.190;5.688;2022-12-07T14:58:18;25.13;;;17.40;;
23812;SDS011;12087;45.190;5.688;2022-12-07T15:03:41;23.77;;;16.88;;
23812;SDS011;12087;45.190;5.688;2022-12-07T15:09:04;34.67;;;20.58;;
23812;SDS011;12087;45.190;5.688;2022-12-07T15:14:27;28.55;;;19.63;;
23812;SDS011;12087;45.190;5.688;2022-12-07T15:53:29;41.25;;;25.45;;
23812;SDS011;12087;45.190;5.688;2022-12-07T15:58:52;47.85;;;26.10;;
23812;SDS011;12087;45.190;5.688;2022-12-07T16:04:14;142.13;;;60.65;;
23812;SDS011;12087;45.190;5.688;2022-12-07T16:09:38;139.15;;;52.30;;
23812;SDS011;12087;45.190;5.688;2022-12-07T16:15:01;122.85;;;53.92;;
23812;SDS011;12087;45.190;5.688;2022-12-07T16:20:23;71.75;;;40.63;;
23812;SDS011;12087;45.190;5.688;2022-12-07T16:25:47;103.40;;;72.90;;
23812;SDS011;12087;45.190;5.688;2022-12-07T16:31:10;82.40;;;57.35;;
23812;SDS011;12087;45.190;5.688;2022-12-07T16:36:34;43.78;;;30.92;;
23812;SDS011;12087;45.190;5.688;2022-12-07T16:41:58;33.47;;;24.50;;
23812;SDS011;12087;45.190;5.688;2022-12-07T16:47:21;35.70;;;24.42;;
23812;SDS011;12087;45.190;5.688;2022-12-07T16:52:43;27.20;;;17.65;;
23812;SDS011;12087;45.190;5.688;2022-12-07T16:58:07;34.92;;;23.65;;
23812;SDS011;12087;45.190;5.688;2022-12-07T17:03:29;35.58;;;25.45;;
23812;SDS011;12087;45.190;5.688;2022-12-07T17:08:52;28.98;;;19.77;;
23812;SDS011;12087;45.190;5.688;2022-12-07T17:14:16;34.88;;;23.58;;
23812;SDS011;12087;45.190;5.688;2022-12-07T17:19:55;30.58;;;20.00;;
23812;SDS011;12087;45.190;5.688;2022-12-07T17:25:18;53.20;;;37.95;;
23812;SDS011;12087;45.190;5.688;2022-12-07T17:30:42;30.20;;;19.95;;
23812;SDS011;12087;45.190;5.688;2022-12-07T17:36:08;39.08;;;21.77;;
23812;SDS011;12087;45.190;5.688;2022-12-07T17:41:31;46.22;;;25.98;;
23812;SDS011;12087;45.190;5.688;2022-12-07T17:47:12;42.70;;;24.20;;
23812;SDS011;12087;45.190;5.688;2022-12-07T17:52:39;35.22;;;21.17;;
23812;SDS011;12087;45.190;5.688;2022-12-07T17:58:22;38.85;;;18.15;;
23812;SDS011;12087;45.190;5.688;2022-12-07T18:03:47;56.63;;;28.67;;
23812;SDS011;12087;45.190;5.688;2022-12-07T18:09:10;51.33;;;26.75;;
23812;SDS011;12087;45.190;5.688;2022-12-07T18:14:33;32.72;;;20.50;;
23812;SDS011;12087;45.190;5.688;2022-12-07T18:19:57;24.73;;;16.50;;
23812;SDS011;12087;45.190;5.688;2022-12-07T18:25:20;26.38;;;16.45;;
23812;SDS011;12087;45.190;5.688;2022-12-07T18:30:42;33.50;;;20.42;;
23812;SDS011;12087;45.190;5.688;2022-12-07T18:36:11;31.42;;;19.27;;
23812;SDS011;12087;45.190;5.688;2022-12-07T18:41:34;32.83;;;19.77;;
23812;SDS011;12087;45.190;5.688;2022-12-07T18:46:58;25.85;;;15.82;;
23812;SDS011;12087;45.190;5.688;2022-12-07T18:57:51;36.05;;;26.30;;
23812;SDS011;12087;45.190;5.688;2022-12-07T19:03:15;37.63;;;22.10;;
23812;SDS011;12087;45.190;5.688;2022-12-07T19:08:48;82.47;;;41.30;;
23812;SDS011;12087;45.190;5.688;2022-12-07T19:14:17;43.63;;;25.73;;
23812;SDS011;12087;45.190;5.688;2022-12-07T19:19:43;35.92;;;20.55;;
23812;SDS011;12087;45.190;5.688;2022-12-07T19:25:08;90.85;;;41.72;;
23812;SDS011;12087;45.190;5.688;2022-12-07T19:30:30;76.40;;;36.17;;
23812;SDS011;12087;45.190;5.688;2022-12-07T19:35:52;76.82;;;37.63;;
23812;SDS011;12087;45.190;5.688;2022-12-07T19:41:16;40.17;;;21.33;;
23812;SDS011;12087;45.190;5.688;2022-12-07T19:46:55;31.05;;;19.70;;
23812;SDS011;12087;45.190;5.688;2022-12-07T19:52:18;38.35;;;21.17;;
23812;SDS011;12087;45.190;5.688;2022-12-07T19:57:42;30.42;;;17.67;;
23812;SDS011;12087;45.190;5.688;2022-12-07T20:03:04;44.50;;;23.73;;
23812;SDS011;12087;45.190;5.688;2022-12-07T20:08:27;73.40;;;39.58;;
23812;SDS011;12087;45.190;5.688;2022-12-07T20:13:51;74.85;;;41.55;;
23812;SDS011;12087;45.190;5.688;2022-12-07T20:19:54;38.33;;;24.90;;
23812;SDS011;12087;45.190;5.688;2022-12-07T20:25:17;33.58;;;21.63;;
23812;SDS011;12087;45.190;5.688;2022-12-07T20:30:46;33.38;;;21.27;;
23812;SDS011;12087;45.190;5.688;2022-12-07T20:36:09;35.42;;;23.73;;
23812;SDS011;12087;45.190;5.688;2022-12-07T20:41:31;31.83;;;20.38;;
23812;SDS011;12087;45.190;5.688;2022-12-07T20:47:13;42.40;;;28.17;;
23812;SDS011;12087;45.190;5.688;2022-12-07T20:52:35;39.90;;;25.00;;
23812;SDS011;12087;45.190;5.688;2022-12-07T20:57:57;45.33;;;31.42;;
23812;SDS011;12087;45.190;5.688;2022-12-07T21:03:21;39.80;;;25.17;;
23812;SDS011;12087;45.190;5.688;2022-12-07T21:08:43;45.90;;;28.40;;
23812;SDS011;12087;45.190;5.688;2022-12-07T21:14:06;36.35;;;22.00;;
23812;SDS011;12087;45.190;5.688;2022-12-07T21:19:30;42.15;;;23.85;;
23812;SDS011;12087;45.190;5.688;2022-12-07T21:24:53;33.00;;;20.80;;
23812;SDS011;12087;45.190;5.688;2022-12-07T21:30:15;29.52;;;18.33;;
23812;SDS011;12087;45.190;5.688;2022-12-07T21:35:39;26.60;;;16.92;;
23812;SDS011;12087;45.190;5.688;2022-12-07T21:41:09;24.40;;;16.38;;
23812;SDS011;12087;45.190;5.688;2022-12-07T21:46:32;27.05;;;16.38;;
23812;SDS011;12087;45.190;5.688;2022-12-07T21:51:56;24.85;;;15.15;;
23812;SDS011;12087;45.190;5.688;2022-12-07T21:57:18;24.77;;;15.25;;
23812;SDS011;12087;45.190;5.688;2022-12-07T22:02:40;24.75;;;15.27;;
23812;SDS011;12087;45.190;5.688;2022-12-07T22:08:04;25.40;;;15.05;;
23812;SDS011;12087;45.190;5.688;2022-12-07T22:13:26;23.38;;;15.32;;
23812;SDS011;12087;45.190;5.688;2022-12-07T22:19:11;26.67;;;17.90;;
23812;SDS011;12087;45.190;5.688;2022-12-07T22:24:35;23.00;;;15.52;;
23812;SDS011;12087;45.190;5.688;2022-12-07T22:29:57;22.38;;;14.98;;
23812;SDS011;12087;45.190;5.688;2022-12-07T22:35:19;18.92;;;12.43;;
23812;SDS011;12087;45.190;5.688;2022-12-07T22:40:43;16.52;;;10.48;;
23812;SDS011;12087;45.190;5.688;2022-12-07T22:46:05;15.57;;;10.73;;
23812;SDS011;12087;45.190;5.688;2022-12-07T22:51:29;17.63;;;10.45;;
23812;SDS011;12087;45.190;5.688;2022-12-07T22:56:53;16.77;;;10.77;;
23812;SDS011;12087;45.190;5.688;2022-12-07T23:02:15;16.65;;;10.25;;
23812;SDS011;12087;45.190;5.688;2022-12-07T23:07:38;15.82;;;9.65;;
23812;SDS011;12087;45.190;5.688;2022-12-07T23:13:02;14.35;;;9.30;;
23812;SDS011;12087;45.190;5.688;2022-12-07T23:18:42;13.50;;;9.40;;
23812;SDS011;12087;45.190;5.688;2022-12-07T23:24:05;10.93;;;8.50;;
23812;SDS011;12087;45.190;5.688;2022-12-07T23:29:29;13.75;;;9.55;;
23812;SDS011;12087;45.190;5.688;2022-12-07T23:34:51;13.23;;;9.07;;
23812;SDS011;12087;45.190;5.688;2022-12-07T23:40:14;12.23;;;9.00;;
23812;SDS011;12087;45.190;5.688;2022-12-07T23:45:37;13.43;;;9.02;;
23812;SDS011;12087;45.190;5.688;2022-12-07T23:51:00;12.82;;;8.77;;
23812;SDS011;12087;45.190;5.688;2022-12-07T23:56:23;13.13;;;9.88;;
